createdAt,value
2023-03-22T00:01:32.357Z,13.23
2023-03-22T00:03:59.268Z,14.10
2023-03-22T00:06:26.577Z,14.00
2023-03-22T00:08:54.176Z,14.65
2023-03-22T00:11:22.581Z,15.25
2023-03-22T00:13:52.384Z,13.57
2023-03-22T00:16:19.638Z,14.07
2023-03-22T00:18:46.403Z,13.75
2023-03-22T00:21:15.301Z,13.88
2023-03-22T00:23:42.372Z,13.45
2023-03-22T00:26:10.901Z,14.63
2023-03-22T00:28:37.605Z,14.82
2023-03-22T00:31:05.838Z,14.05
2023-03-22T00:33:33.054Z,13.75
2023-03-22T00:36:05.553Z,13.80
2023-03-22T00:38:42.652Z,14.52
2023-03-22T00:41:14.318Z,14.50
2023-03-22T00:43:41.645Z,12.88
2023-03-22T00:46:09.833Z,14.55
2023-03-22T00:48:36.617Z,13.10
2023-03-22T00:51:04.007Z,13.02
2023-03-22T00:53:32.785Z,13.73
2023-03-22T00:55:59.916Z,13.93
2023-03-22T00:58:26.798Z,13.65
2023-03-22T01:00:53.640Z,13.18
2023-03-22T01:03:21.856Z,13.05
2023-03-22T01:05:49.346Z,14.85
2023-03-22T01:08:16.716Z,13.57
2023-03-22T01:10:44.445Z,14.60
2023-03-22T01:13:12.278Z,14.18
2023-03-22T01:15:38.993Z,13.93
2023-03-22T01:18:05.805Z,14.63
2023-03-22T01:20:32.504Z,14.98
2023-03-22T01:22:59.546Z,13.65
2023-03-22T01:25:26.323Z,15.30
2023-03-22T01:27:53.873Z,16.02
2023-03-22T01:30:20.682Z,14.85
2023-03-22T01:32:47.295Z,14.07
2023-03-22T01:35:13.939Z,14.95
2023-03-22T01:37:40.583Z,14.38
2023-03-22T01:40:08.004Z,15.50
2023-03-22T01:42:34.725Z,15.13
2023-03-22T01:45:38.186Z,15.95
2023-03-22T01:48:13.479Z,16.48
2023-03-22T01:50:44.017Z,14.68
2023-03-22T01:53:13.603Z,16.20
2023-03-22T01:55:41.410Z,15.75
2023-03-22T01:58:08.398Z,15.43
2023-03-22T02:00:36.027Z,15.20
2023-03-22T02:03:03.078Z,16.13
2023-03-22T02:05:30.931Z,15.40
2023-03-22T02:07:57.708Z,16.45
2023-03-22T02:10:27.043Z,15.63
2023-03-22T02:13:19.318Z,14.98
2023-03-22T02:16:12.668Z,17.17
2023-03-22T02:19:14.148Z,14.20
2023-03-22T02:22:21.965Z,15.98
2023-03-22T02:25:27.509Z,17.02
2023-03-22T02:28:11.998Z,16.33
2023-03-22T02:30:44.761Z,15.93
2023-03-22T02:33:20.316Z,17.63
2023-03-22T02:35:53.811Z,17.23
2023-03-22T02:38:33.593Z,15.63
2023-03-22T02:41:16.418Z,16.75
2023-03-22T02:44:02.153Z,14.68
2023-03-22T02:46:41.160Z,18.23
2023-03-22T02:49:41.417Z,19.05
2023-03-22T02:52:19.506Z,16.92
2023-03-22T02:55:05.010Z,14.45
2023-03-22T02:57:54.969Z,16.45
2023-03-22T03:00:21.688Z,17.25
2023-03-22T03:02:59.996Z,18.00
2023-03-22T03:05:30.836Z,16.67
2023-03-22T03:08:01.254Z,16.98
2023-03-22T03:10:28.467Z,17.42
2023-03-22T03:12:55.085Z,17.27
2023-03-22T03:15:23.615Z,17.23
2023-03-22T03:18:08.474Z,18.52
2023-03-22T03:21:10.073Z,16.50
2023-03-22T03:23:54.918Z,18.20
2023-03-22T03:26:37.256Z,17.65
2023-03-22T03:29:37.134Z,18.10
2023-03-22T03:32:35.473Z,16.45
2023-03-22T03:35:17.884Z,17.02
2023-03-22T03:37:50.005Z,18.17
2023-03-22T03:40:25.556Z,16.65
2023-03-22T03:42:54.209Z,18.35
2023-03-22T03:45:22.081Z,19.73
2023-03-22T03:47:56.838Z,19.10
2023-03-22T03:50:25.742Z,18.60
2023-03-22T03:52:54.429Z,17.35
2023-03-22T03:55:22.528Z,18.75
2023-03-22T03:57:49.352Z,17.73
2023-03-22T04:00:16.886Z,16.65
2023-03-22T04:02:44.137Z,19.02
2023-03-22T04:05:12.645Z,17.67
2023-03-22T04:07:39.854Z,18.90
2023-03-22T04:10:07.562Z,17.45
2023-03-22T04:12:34.395Z,20.50
2023-03-22T04:15:01.161Z,20.55
2023-03-22T04:17:32.016Z,18.83
2023-03-22T04:19:58.755Z,19.98
2023-03-22T04:22:26.571Z,19.70
2023-03-22T04:24:53.192Z,19.98
2023-03-22T04:27:22.295Z,20.38
2023-03-22T04:29:50.789Z,19.27
2023-03-22T04:32:18.921Z,18.35
2023-03-22T04:34:46.399Z,21.45
2023-03-22T04:37:14.314Z,18.13
2023-03-22T04:39:41.112Z,20.20
2023-03-22T04:42:08.175Z,20.05
2023-03-22T04:44:35.517Z,21.17
2023-03-22T04:47:02.487Z,21.15
2023-03-22T04:49:29.250Z,21.02
2023-03-22T04:51:56.796Z,22.27
2023-03-22T04:54:24.322Z,20.77
2023-03-22T04:56:51.200Z,20.83
2023-03-22T04:59:20.187Z,21.35
2023-03-22T05:01:48.274Z,20.20
2023-03-22T05:04:16.363Z,20.55
2023-03-22T05:06:43.118Z,21.42
2023-03-22T05:09:10.651Z,22.33
2023-03-22T05:11:37.491Z,21.50
2023-03-22T05:14:04.631Z,21.02
2023-03-22T05:16:31.438Z,23.80
2023-03-22T05:18:58.226Z,20.02
2023-03-22T05:21:28.510Z,21.25
2023-03-22T05:23:57.120Z,20.80
2023-03-22T05:26:26.319Z,20.33
2023-03-22T05:28:54.290Z,19.83
2023-03-22T05:31:22.663Z,20.00
2023-03-22T05:33:50.459Z,20.25
2023-03-22T05:36:19.105Z,18.90
2023-03-22T05:38:46.539Z,18.08
2023-03-22T05:41:14.208Z,19.42
2023-03-22T05:43:41.370Z,19.75
2023-03-22T05:46:10.263Z,20.88
2023-03-22T05:48:38.118Z,18.02
2023-03-22T05:51:17.434Z,19.60
2023-03-22T05:53:45.341Z,20.25
2023-03-22T05:56:12.899Z,19.80
2023-03-22T05:58:41.094Z,18.55
2023-03-22T06:01:10.919Z,20.20
2023-03-22T06:03:38.775Z,20.20
2023-03-22T06:06:10.593Z,18.73
2023-03-22T06:08:39.481Z,20.63
2023-03-22T06:11:07.137Z,21.25
2023-03-22T06:13:33.997Z,20.45
2023-03-22T06:16:02.852Z,20.80
2023-03-22T06:18:30.324Z,21.25
2023-03-22T06:20:57.356Z,22.73
2023-03-22T06:23:24.210Z,21.83
2023-03-22T06:25:50.973Z,22.35
2023-03-22T06:28:17.637Z,21.80
2023-03-22T06:30:44.245Z,22.40
2023-03-22T06:33:10.986Z,20.60
2023-03-22T06:35:37.759Z,22.35
2023-03-22T06:38:04.520Z,21.05
2023-03-22T06:40:31.208Z,23.33
2023-03-22T06:42:57.830Z,22.30
2023-03-22T06:45:24.603Z,22.67
2023-03-22T06:47:51.272Z,23.42
2023-03-22T06:50:18.055Z,23.77
2023-03-22T06:52:44.689Z,23.60
2023-03-22T06:55:11.378Z,22.77
2023-03-22T06:57:38.055Z,23.05
2023-03-22T07:00:05.484Z,21.05
2023-03-22T07:02:32.169Z,19.67
2023-03-22T07:04:58.821Z,20.52
2023-03-22T07:07:25.754Z,20.55
2023-03-22T07:09:53.303Z,21.98
2023-03-22T07:12:19.965Z,19.13
2023-03-22T07:14:46.777Z,21.10
2023-03-22T07:17:14.140Z,18.02
2023-03-22T07:19:42.627Z,21.15
2023-03-22T07:22:09.359Z,18.73
2023-03-22T07:24:40.358Z,18.35
2023-03-22T07:27:11.455Z,18.92
2023-03-22T07:29:38.073Z,16.27
2023-03-22T07:32:05.463Z,14.32
2023-03-22T07:34:32.142Z,14.25
2023-03-22T07:36:58.803Z,13.05
2023-03-22T07:39:25.803Z,12.30
2023-03-22T07:41:52.590Z,12.20
2023-03-22T07:44:19.296Z,11.85
2023-03-22T07:46:46.017Z,11.23
2023-03-22T07:49:12.861Z,11.32
2023-03-22T07:51:39.500Z,11.52
2023-03-22T07:54:07.867Z,10.70
2023-03-22T07:56:34.906Z,9.63
2023-03-22T07:59:01.773Z,10.10
2023-03-22T08:01:28.541Z,9.27
2023-03-22T08:03:55.237Z,10.27
2023-03-22T08:06:21.939Z,9.57
2023-03-22T08:08:48.624Z,9.85
2023-03-22T08:11:15.601Z,9.88
2023-03-22T08:13:42.268Z,10.13
2023-03-22T08:16:09.043Z,10.23
2023-03-22T08:18:36.054Z,9.60
2023-03-22T08:21:02.788Z,9.45
2023-03-22T08:23:40.990Z,9.60
2023-03-22T08:26:09.569Z,9.52
2023-03-22T08:28:36.493Z,8.75
2023-03-22T08:31:13.252Z,8.52
2023-03-22T08:33:40.969Z,8.07
2023-03-22T08:36:11.030Z,7.95
2023-03-22T08:38:37.930Z,7.53
2023-03-22T08:41:05.008Z,6.47
2023-03-22T08:43:31.679Z,6.85
2023-03-22T08:45:58.896Z,6.65
2023-03-22T08:48:27.965Z,5.72
2023-03-22T08:50:54.770Z,6.95
2023-03-22T08:53:21.389Z,5.82
2023-03-22T08:55:48.408Z,5.32
2023-03-22T08:58:16.627Z,7.15
2023-03-22T09:00:48.914Z,6.25
2023-03-22T09:03:16.802Z,6.88
2023-03-22T09:05:43.632Z,7.03
2023-03-22T09:08:19.148Z,6.32
2023-03-22T09:10:51.306Z,6.35
2023-03-22T09:13:18.401Z,6.05
2023-03-22T09:15:45.340Z,5.60
2023-03-22T09:18:12.162Z,5.70
2023-03-22T09:20:40.052Z,5.93
2023-03-22T09:23:08.127Z,4.93
2023-03-22T09:25:34.841Z,5.40
2023-03-22T09:28:02.258Z,5.07
2023-03-22T09:30:28.928Z,4.93
2023-03-22T09:32:55.688Z,4.90
2023-03-22T09:35:22.600Z,4.80
2023-03-22T09:37:49.531Z,4.85
2023-03-22T09:40:17.883Z,5.65
2023-03-22T09:42:48.236Z,4.95
2023-03-22T09:45:30.705Z,4.60
2023-03-22T09:47:58.755Z,4.28
2023-03-22T09:50:31.291Z,4.65
2023-03-22T09:52:59.842Z,4.38
2023-03-22T09:55:55.699Z,5.00
2023-03-22T09:58:26.150Z,4.32
2023-03-22T10:01:37.325Z,4.65
2023-03-22T10:04:29.290Z,4.43
2023-03-22T10:07:06.863Z,4.15
2023-03-22T10:09:37.164Z,4.05
2023-03-22T10:12:26.746Z,3.83
2023-03-22T10:15:19.888Z,3.85
2023-03-22T10:17:52.160Z,4.15
2023-03-22T10:22:53.416Z,3.65
2023-03-22T10:25:27.846Z,4.00
2023-03-22T10:27:54.659Z,3.97
2023-03-22T10:30:26.047Z,3.40
2023-03-22T10:33:01.083Z,3.67
2023-03-22T10:35:29.587Z,3.72
2023-03-22T10:38:00.446Z,3.28
2023-03-22T10:40:31.806Z,2.75
2023-03-22T10:43:07.704Z,2.80
2023-03-22T10:45:36.095Z,2.17
2023-03-22T10:48:07.384Z,2.45
2023-03-22T10:50:38.052Z,1.77
2023-03-22T10:53:12.224Z,2.72
2023-03-22T10:55:43.988Z,2.20
2023-03-22T10:58:14.036Z,2.17
2023-03-22T11:00:45.014Z,2.22
2023-03-22T11:03:31.947Z,2.42
2023-03-22T11:06:16.101Z,2.80
2023-03-22T11:08:46.474Z,2.10
2023-03-22T11:11:17.471Z,2.17
2023-03-22T11:13:51.145Z,2.20
2023-03-22T11:16:18.830Z,2.63
2023-03-22T11:18:45.699Z,2.05
2023-03-22T11:21:16.581Z,1.80
2023-03-22T11:23:52.256Z,1.92
2023-03-22T11:26:27.695Z,1.55
2023-03-22T11:29:06.732Z,2.22
2023-03-22T11:32:03.275Z,2.33
2023-03-22T11:34:31.589Z,1.85
2023-03-22T11:37:01.447Z,1.73
2023-03-22T11:39:30.074Z,1.60
2023-03-22T11:42:01.912Z,1.75
2023-03-22T11:44:34.019Z,1.75
2023-03-22T11:47:02.581Z,1.58
2023-03-22T11:49:44.307Z,1.40
2023-03-22T11:52:24.240Z,1.42
2023-03-22T11:54:51.939Z,1.92
2023-03-22T11:57:25.806Z,1.40
2023-03-22T12:00:19.885Z,1.40
2023-03-22T12:03:14.028Z,1.58
2023-03-22T12:05:44.407Z,1.30
2023-03-22T12:08:42.747Z,1.10
2023-03-22T12:11:15.978Z,1.17
2023-03-22T12:13:54.478Z,0.93
2023-03-22T12:16:37.903Z,0.85
2023-03-22T12:19:29.968Z,1.00
2023-03-22T12:21:58.804Z,1.20
2023-03-22T12:24:31.997Z,1.20
2023-03-22T12:27:03.578Z,1.70
2023-03-22T12:29:31.722Z,0.90
2023-03-22T12:32:03.584Z,1.00
2023-03-22T12:34:40.848Z,1.00
2023-03-22T12:37:13.889Z,1.33
2023-03-22T12:39:49.731Z,0.75
2023-03-22T12:42:30.799Z,0.60
2023-03-22T12:45:05.739Z,1.00
2023-03-22T12:47:44.056Z,0.77
2023-03-22T12:50:26.210Z,0.73
2023-03-22T12:52:57.263Z,1.00
2023-03-22T12:55:39.391Z,0.60
2023-03-22T12:58:07.830Z,0.98
2023-03-22T13:00:42.380Z,0.73
2023-03-22T13:03:18.651Z,1.08
2023-03-22T13:05:48.175Z,1.15
2023-03-22T13:08:22.440Z,0.88
2023-03-22T13:11:03.942Z,1.20
2023-03-22T13:13:42.815Z,1.08
2023-03-22T13:16:09.541Z,0.90
2023-03-22T13:18:36.363Z,1.00
2023-03-22T13:21:21.463Z,0.88
2023-03-22T13:24:12.996Z,1.35
2023-03-22T13:26:47.545Z,1.30
2023-03-22T13:29:41.898Z,0.90
2023-03-22T13:32:33.365Z,0.98
2023-03-22T13:35:00.808Z,1.00
2023-03-22T13:37:44.427Z,0.80
2023-03-22T13:40:53.245Z,0.90
2023-03-22T13:43:47.363Z,0.90
2023-03-22T13:46:24.447Z,0.90
2023-03-22T13:49:12.679Z,0.60
2023-03-22T13:51:40.349Z,0.90
2023-03-22T13:54:07.574Z,0.88
2023-03-22T13:57:03.766Z,1.10
2023-03-22T14:00:06.866Z,0.85
2023-03-22T14:02:42.199Z,0.85
2023-03-22T14:05:14.575Z,0.98
2023-03-22T14:07:50.802Z,0.73
2023-03-22T14:10:38.007Z,1.25
2023-03-22T14:13:30.781Z,1.02
2023-03-22T14:16:04.563Z,0.75
2023-03-22T14:18:34.356Z,0.88
2023-03-22T14:21:06.810Z,1.13
